createdAt,value
2018-08-12T00:00:43.804Z,985.1
2018-08-12T00:01:47.466Z,985.1
2018-08-12T00:02:48.654Z,985.1
2018-08-12T00:03:52.189Z,985.1
2018-08-12T00:04:53.406Z,985.1
2018-08-12T00:05:54.648Z,985.1
2018-08-12T00:06:55.831Z,985
2018-08-12T00:07:57.259Z,985
2018-08-12T00:08:58.456Z,985
2018-08-12T00:10:02.087Z,985.1
2018-08-12T00:11:03.368Z,985.1
2018-08-12T00:12:04.591Z,985.1
2018-08-12T00:13:10.242Z,985
2018-08-12T00:14:11.443Z,985.1
2018-08-12T00:15:12.692Z,985
2018-08-12T00:16:15.079Z,985.1
2018-08-12T00:17:17.012Z,985.1
2018-08-12T00:18:18.193Z,985.1
2018-08-12T00:19:22.460Z,985.1
2018-08-12T00:20:23.858Z,985.1
2018-08-12T00:21:25.387Z,985
2018-08-12T00:22:26.608Z,985.1
2018-08-12T00:23:27.839Z,985
2018-08-12T00:24:29.247Z,985
2018-08-12T00:25:30.953Z,985
2018-08-12T00:26:33.076Z,985
2018-08-12T00:27:36.441Z,985
2018-08-12T00:28:37.659Z,985
2018-08-12T00:29:38.906Z,985
2018-08-12T00:30:43.152Z,985
2018-08-12T00:31:44.401Z,984.9
2018-08-12T00:32:45.598Z,985
2018-08-12T00:33:49.232Z,985
2018-08-12T00:34:50.456Z,984.9
2018-08-12T00:35:51.697Z,985
2018-08-12T00:36:52.924Z,984.9
2018-08-12T00:37:56.895Z,984.9
2018-08-12T00:39:00.521Z,984.9
2018-08-12T00:40:01.732Z,984.9
2018-08-12T00:41:03.009Z,984.9
2018-08-12T00:42:07.194Z,984.9
2018-08-12T00:43:09.536Z,984.9
2018-08-12T00:44:10.841Z,984.9
2018-08-12T00:45:12.127Z,984.9
2018-08-12T00:46:16.266Z,984.9
2018-08-12T00:47:17.531Z,984.9
2018-08-12T00:48:18.904Z,984.9
2018-08-12T00:49:20.172Z,984.9
2018-08-12T00:50:23.954Z,984.9
2018-08-12T00:51:25.216Z,984.9
2018-08-12T00:52:26.511Z,984.9
2018-08-12T00:53:33.388Z,984.8
2018-08-12T00:54:34.619Z,984.8
2018-08-12T00:55:36.892Z,984.9
2018-08-12T00:56:42.908Z,984.8
2018-08-12T00:57:46.568Z,984.8
2018-08-12T00:58:47.763Z,984.9
2018-08-12T00:59:48.966Z,984.9
2018-08-12T01:00:50.355Z,984.9
2018-08-12T01:01:51.596Z,984.8
2018-08-12T01:02:52.903Z,984.9
2018-08-12T01:03:54.104Z,984.9
2018-08-12T01:04:55.303Z,984.8
2018-08-12T01:05:56.491Z,984.8
2018-08-12T01:06:59.882Z,984.9
2018-08-12T01:08:01.152Z,984.9
2018-08-12T01:09:02.355Z,985
2018-08-12T01:10:03.586Z,984.8
2018-08-12T01:11:04.795Z,984.8
2018-08-12T01:12:06.062Z,984.9
2018-08-12T01:13:07.392Z,984.8
2018-08-12T01:14:08.592Z,984.8
2018-08-12T01:15:09.831Z,984.8
2018-08-12T01:16:13.742Z,984.8
2018-08-12T01:17:14.955Z,984.7
2018-08-12T01:18:16.187Z,984.8
2018-08-12T01:19:22.372Z,984.8
2018-08-12T01:20:23.585Z,984.8
2018-08-12T01:21:24.924Z,984.8
2018-08-12T01:22:28.934Z,984.8
2018-08-12T01:23:30.342Z,984.8
2018-08-12T01:24:31.560Z,984.8
2018-08-12T01:25:32.776Z,984.8
2018-08-12T01:26:35.037Z,984.8
2018-08-12T01:27:36.253Z,984.8
2018-08-12T01:28:37.485Z,984.9
2018-08-12T01:29:38.735Z,984.8
2018-08-12T01:30:41.497Z,984.8
2018-08-12T01:31:42.743Z,984.8
2018-08-12T01:32:44.374Z,984.8
2018-08-12T01:33:45.616Z,984.8
2018-08-12T01:34:46.824Z,984.8
2018-08-12T01:35:48.056Z,984.8
2018-08-12T01:36:49.244Z,984.8
2018-08-12T01:37:50.503Z,984.8
2018-08-12T01:38:53.638Z,984.8
2018-08-12T01:39:54.873Z,984.8
2018-08-12T01:40:56.091Z,984.8
2018-08-12T01:41:57.283Z,984.7
2018-08-12T01:42:58.512Z,984.8
2018-08-12T01:43:59.821Z,984.8
2018-08-12T01:45:01.158Z,984.8
2018-08-12T01:46:02.383Z,984.8
2018-08-12T01:47:03.611Z,984.8
2018-08-12T01:48:05.652Z,984.6
2018-08-12T01:49:06.962Z,984.8
2018-08-12T01:50:08.188Z,984.8
2018-08-12T01:51:12.073Z,984.8
2018-08-12T01:52:13.294Z,984.8
2018-08-12T01:53:14.572Z,984.8
2018-08-12T01:54:15.875Z,984.8
2018-08-12T01:55:17.091Z,984.8
2018-08-12T01:56:18.329Z,984.7
2018-08-12T01:57:21.269Z,984.8
2018-08-12T01:58:22.479Z,984.8
2018-08-12T01:59:23.999Z,984.8
2018-08-12T02:00:25.228Z,984.7
2018-08-12T02:01:26.407Z,984.7
2018-08-12T02:02:27.721Z,984.6
2018-08-12T02:03:29.632Z,984.7
2018-08-12T02:04:33.417Z,984.7
2018-08-12T02:05:41.847Z,984.7
2018-08-12T02:06:43.074Z,984.7
2018-08-12T02:07:44.277Z,984.7
2018-08-12T02:08:45.483Z,984.7
2018-08-12T02:09:46.727Z,984.2
2018-08-12T02:10:48.132Z,984.7
2018-08-12T02:11:49.314Z,984.6
2018-08-12T02:12:51.913Z,984.6
2018-08-12T02:13:53.131Z,984.7
2018-08-12T02:14:54.559Z,984.6
2018-08-12T02:15:55.756Z,984.6
2018-08-12T02:16:57.240Z,984.7
2018-08-12T02:17:58.435Z,984.7
2018-08-12T02:18:59.719Z,984.6
2018-08-12T02:20:00.979Z,984.5
2018-08-12T02:21:02.182Z,984.6
2018-08-12T02:22:03.383Z,984.5
2018-08-12T02:23:04.551Z,984.5
2018-08-12T02:24:05.736Z,984.5
2018-08-12T02:25:07.080Z,984.5
2018-08-12T02:26:09.029Z,984.5
2018-08-12T02:27:10.379Z,984.5
2018-08-12T02:28:11.603Z,984.5
2018-08-12T02:29:12.858Z,984.5
2018-08-12T02:30:15.056Z,984.5
2018-08-12T02:31:18.452Z,984.4
2018-08-12T02:32:22.495Z,984.5
2018-08-12T02:33:23.695Z,984.4
2018-08-12T02:34:24.907Z,984.4
2018-08-12T02:35:26.156Z,984.4
2018-08-12T02:36:27.804Z,984.4
2018-08-12T02:37:30.754Z,984.4
2018-08-12T02:38:31.951Z,984.4
2018-08-12T02:39:33.184Z,984.4
2018-08-12T02:40:34.391Z,984.4
2018-08-12T02:41:35.618Z,984.4
2018-08-12T02:42:36.811Z,984.5
2018-08-12T02:43:38.048Z,984.4
2018-08-12T02:44:39.270Z,984.4
2018-08-12T02:45:40.737Z,984.4
2018-08-12T02:46:41.978Z,984.4
2018-08-12T02:47:43.213Z,984.4
2018-08-12T02:48:44.399Z,984.4
2018-08-12T02:49:45.625Z,984.4
2018-08-12T02:50:46.987Z,984.4
2018-08-12T02:51:48.252Z,984.4
2018-08-12T02:52:49.441Z,984.4
2018-08-12T02:53:50.632Z,984.4
2018-08-12T02:54:51.835Z,984.2
2018-08-12T02:55:53.074Z,984.4
2018-08-12T02:56:54.263Z,984.4
2018-08-12T02:57:55.481Z,984.4
2018-08-12T02:58:56.672Z,984.4
2018-08-12T02:59:57.881Z,984.5
2018-08-12T03:00:59.297Z,984.4
2018-08-12T03:02:00.537Z,984.4
2018-08-12T03:03:01.752Z,984.4
2018-08-12T03:04:04.093Z,984.3
2018-08-12T03:05:08.207Z,984.4
2018-08-12T03:06:09.428Z,984.4
2018-08-12T03:07:10.633Z,984.4
2018-08-12T03:08:11.879Z,984.4
2018-08-12T03:09:13.080Z,984.4
2018-08-12T03:10:14.282Z,984.3
2018-08-12T03:11:15.516Z,984.3
2018-08-12T03:12:16.758Z,984.3
2018-08-12T03:13:17.947Z,984.2
2018-08-12T03:14:19.144Z,984.2
2018-08-12T03:15:20.352Z,984.2
2018-08-12T03:16:21.663Z,984.2
2018-08-12T03:17:22.858Z,984.2
2018-08-12T03:18:24.098Z,984.3
2018-08-12T03:19:25.302Z,984.2
2018-08-12T03:20:26.508Z,984.2
2018-08-12T03:21:27.744Z,984.1
2018-08-12T03:22:29.044Z,984.1
2018-08-12T03:23:30.132Z,984.2
2018-08-12T03:24:31.303Z,984.1
2018-08-12T03:25:32.533Z,984.1
2018-08-12T03:26:37.172Z,984.1
2018-08-12T03:27:38.443Z,984.1
2018-08-12T03:28:39.667Z,984
2018-08-12T03:29:40.872Z,984.1
2018-08-12T03:30:42.071Z,984.2
2018-08-12T03:31:43.648Z,984.1
2018-08-12T03:32:44.871Z,984.1
2018-08-12T03:33:49.188Z,984
2018-08-12T03:34:53.075Z,984
2018-08-12T03:35:56.751Z,984
2018-08-12T03:36:58.032Z,984.1
2018-08-12T03:37:59.309Z,984.1
2018-08-12T03:39:01.777Z,984
2018-08-12T03:40:03.016Z,984
2018-08-12T03:41:04.231Z,984.1
2018-08-12T03:42:05.441Z,984
2018-08-12T03:43:06.663Z,984.1
2018-08-12T03:44:07.884Z,984.1
2018-08-12T03:45:09.135Z,984
2018-08-12T03:46:10.341Z,984
2018-08-12T03:47:11.789Z,984.1
2018-08-12T03:48:13.001Z,984
2018-08-12T03:49:14.238Z,984
2018-08-12T03:50:15.848Z,984
2018-08-12T03:51:17.068Z,983.9
2018-08-12T03:52:18.335Z,983.9
2018-08-12T03:53:19.543Z,983.9
2018-08-12T03:54:20.772Z,984
2018-08-12T03:55:21.986Z,983.9
2018-08-12T03:56:23.195Z,983.9
2018-08-12T03:57:25.320Z,984
2018-08-12T03:58:26.550Z,983.9
2018-08-12T03:59:27.749Z,984
2018-08-12T04:00:28.961Z,984
2018-08-12T04:01:30.184Z,984
2018-08-12T04:02:32.239Z,984
2018-08-12T04:03:33.523Z,984.1
2018-08-12T04:04:34.760Z,984
2018-08-12T04:05:35.958Z,984
2018-08-12T04:06:37.476Z,984
2018-08-12T04:07:38.738Z,984
2018-08-12T04:08:39.987Z,983.9
2018-08-12T04:09:41.244Z,984
2018-08-12T04:10:42.422Z,983.8
2018-08-12T04:11:43.626Z,984
2018-08-12T04:12:44.888Z,984
2018-08-12T04:13:46.108Z,984
2018-08-12T04:14:47.314Z,984
2018-08-12T04:15:48.566Z,983.9
2018-08-12T04:16:49.771Z,984
2018-08-12T04:17:51.573Z,984
2018-08-12T04:18:52.793Z,984
2018-08-12T04:19:53.989Z,984
2018-08-12T04:20:55.226Z,984
2018-08-12T04:21:56.407Z,984
2018-08-12T04:22:57.653Z,984
2018-08-12T04:23:58.883Z,984
2018-08-12T04:25:00.100Z,984
2018-08-12T04:26:04.295Z,984
2018-08-12T04:27:05.516Z,984
2018-08-12T04:28:08.133Z,984.1
2018-08-12T04:29:09.346Z,984
2018-08-12T04:30:14.658Z,984.1
2018-08-12T04:31:18.337Z,984.1
2018-08-12T04:32:20.691Z,984
2018-08-12T04:33:22.114Z,984.1
2018-08-12T04:34:23.305Z,984.1
2018-08-12T04:35:24.507Z,984.1
2018-08-12T04:36:25.735Z,984.1
2018-08-12T04:37:27.143Z,984.1
2018-08-12T04:38:28.602Z,984.2
2018-08-12T04:39:29.751Z,984.2
2018-08-12T04:40:30.967Z,984.2
2018-08-12T04:41:32.175Z,984.1
2018-08-12T04:42:33.367Z,984.2
2018-08-12T04:43:34.597Z,984.1
2018-08-12T04:44:35.760Z,984.2
2018-08-12T04:45:36.926Z,984.1
2018-08-12T04:46:38.119Z,984.1
2018-08-12T04:47:39.307Z,984.1
2018-08-12T04:48:40.559Z,984.1
2018-08-12T04:49:41.799Z,983.9
2018-08-12T04:50:46.112Z,984
2018-08-12T04:51:47.305Z,984
2018-08-12T04:52:48.496Z,984
2018-08-12T04:53:49.943Z,984
2018-08-12T04:54:51.168Z,983.9
2018-08-12T04:55:52.348Z,983.8
2018-08-12T04:56:53.544Z,983.8
2018-08-12T04:57:54.726Z,983.8
2018-08-12T04:58:55.935Z,983.8
2018-08-12T04:59:57.134Z,983.8
2018-08-12T05:00:58.304Z,983.8
2018-08-12T05:01:59.559Z,983.8
2018-08-12T05:03:01.725Z,983.8
2018-08-12T05:04:03.226Z,983.7
2018-08-12T05:05:04.447Z,983.7
2018-08-12T05:06:05.655Z,983.6
2018-08-12T05:07:06.887Z,983.7
2018-08-12T05:08:08.250Z,983.7
2018-08-12T05:09:09.563Z,983.6
2018-08-12T05:10:10.791Z,983.6
2018-08-12T05:11:12.044Z,983.6
2018-08-12T05:12:13.264Z,983.6
2018-08-12T05:13:14.454Z,983.6
2018-08-12T05:14:15.686Z,983.5
2018-08-12T05:15:16.901Z,983.4
2018-08-12T05:16:18.106Z,983.4
2018-08-12T05:17:19.286Z,983.5
2018-08-12T05:18:21.145Z,983.4
2018-08-12T05:19:22.437Z,983.5
2018-08-12T05:20:23.673Z,983.4
2018-08-12T05:21:29.255Z,983.5
2018-08-12T05:22:30.516Z,983.3
2018-08-12T05:23:31.932Z,983.4
2018-08-12T05:24:33.658Z,983.5
2018-08-12T05:25:34.897Z,983.4
2018-08-12T05:26:39.129Z,983.3
2018-08-12T05:27:40.358Z,983.3
2018-08-12T05:28:41.549Z,983.2
2018-08-12T05:29:42.787Z,983.2
2018-08-12T05:30:44.003Z,983.2
2018-08-12T05:31:45.235Z,983.1
2018-08-12T05:32:46.650Z,983
2018-08-12T05:33:47.855Z,983.2
2018-08-12T05:34:49.118Z,983.2
2018-08-12T05:35:51.035Z,983.2
2018-08-12T05:36:52.234Z,983.2
2018-08-12T05:37:53.497Z,983.2
2018-08-12T05:38:54.712Z,983.2
2018-08-12T05:39:55.950Z,983.3
2018-08-12T05:40:57.191Z,983.4
2018-08-12T05:41:58.496Z,983.3
2018-08-12T05:43:00.625Z,983.4
2018-08-12T05:44:02.002Z,983.1
2018-08-12T05:45:03.399Z,982.9
2018-08-12T05:46:04.632Z,983.1
2018-08-12T05:47:05.825Z,983
2018-08-12T05:48:07.018Z,983.1
2018-08-12T05:49:08.205Z,983.3
2018-08-12T05:50:09.463Z,983.1
2018-08-12T05:51:10.765Z,983.5
2018-08-12T05:52:11.911Z,983.2
2018-08-12T05:53:13.082Z,982.8
2018-08-12T05:54:14.253Z,983
2018-08-12T05:55:15.496Z,983.1
2018-08-12T05:56:16.747Z,982.9
2018-08-12T05:57:18.179Z,983.1
2018-08-12T05:58:19.371Z,983.1
2018-08-12T05:59:20.819Z,982.7
2018-08-12T06:00:22.130Z,982.8
2018-08-12T06:01:23.355Z,983
2018-08-12T06:02:24.561Z,982.9
2018-08-12T06:03:25.748Z,982.8
2018-08-12T06:04:26.968Z,983.1
2018-08-12T06:05:29.940Z,982.9
2018-08-12T06:06:31.154Z,982.8
2018-08-12T06:07:32.690Z,983.1
2018-08-12T06:08:33.932Z,983.4
2018-08-12T06:09:37.911Z,983
2018-08-12T06:10:39.364Z,983.7
2018-08-12T06:11:40.551Z,983.9
2018-08-12T06:12:41.822Z,984.1
2018-08-12T06:13:43.055Z,983.6
2018-08-12T06:14:48.853Z,983
2018-08-12T06:15:52.615Z,983.6
2018-08-12T06:16:53.832Z,983.5
2018-08-12T06:17:55.086Z,983
2018-08-12T06:18:56.308Z,982.9
2018-08-12T06:19:57.508Z,982.8
2018-08-12T06:20:58.798Z,982.6
2018-08-12T06:22:00.008Z,982.6
2018-08-12T06:23:01.242Z,982.6
2018-08-12T06:24:02.501Z,982.6
2018-08-12T06:25:03.732Z,982.7
2018-08-12T06:26:04.992Z,982.5
2018-08-12T06:27:06.397Z,982.4
2018-08-12T06:28:09.087Z,982.4
2018-08-12T06:29:10.294Z,982.4
2018-08-12T06:30:11.664Z,982.6
2018-08-12T06:31:12.883Z,982.4
2018-08-12T06:32:14.147Z,982.5
2018-08-12T06:33:15.352Z,982.7
2018-08-12T06:34:16.613Z,983.1
2018-08-12T06:35:17.864Z,983.3
2018-08-12T06:36:20.050Z,982.6
2018-08-12T06:37:21.251Z,983.9
2018-08-12T06:38:23.759Z,982.9
2018-08-12T06:39:24.981Z,982.3
2018-08-12T06:40:26.184Z,982.6
2018-08-12T06:41:27.423Z,982.8
2018-08-12T06:42:28.618Z,983.1
2018-08-12T06:43:29.833Z,983.7
2018-08-12T06:44:31.059Z,983.4
2018-08-12T06:45:32.355Z,982.6
2018-08-12T06:46:33.580Z,982.4
2018-08-12T06:47:34.797Z,982.6
2018-08-12T06:48:36.003Z,982.6
2018-08-12T06:49:37.221Z,982.4
2018-08-12T06:50:38.695Z,982.5
2018-08-12T06:51:43.202Z,982.7
2018-08-12T06:52:47.008Z,984.3
2018-08-12T06:53:48.199Z,982.8
2018-08-12T06:54:49.395Z,983.3
2018-08-12T06:55:50.609Z,982.6
2018-08-12T06:56:54.229Z,983
2018-08-12T06:57:55.502Z,982.8
2018-08-12T06:58:56.801Z,982.8
2018-08-12T06:59:58.040Z,982.8
2018-08-12T07:00:59.291Z,983.7
2018-08-12T07:02:00.611Z,982.9
2018-08-12T07:03:01.902Z,982.4
2018-08-12T07:04:06.344Z,982.5
2018-08-12T07:05:07.743Z,982.9
2018-08-12T07:06:12.609Z,982.5
2018-08-12T07:07:14.056Z,982.5
2018-08-12T07:08:17.215Z,982.4
2018-08-12T07:09:21.187Z,982.6
2018-08-12T07:10:22.462Z,982.3
2018-08-12T07:11:24.870Z,982.6
2018-08-12T07:12:29.131Z,982.4
2018-08-12T07:13:35.278Z,982.3
2018-08-12T07:14:37.945Z,982.4
2018-08-12T07:15:39.128Z,982.2
2018-08-12T07:16:40.432Z,982.4
2018-08-12T07:17:42.023Z,982.3
2018-08-12T07:18:43.318Z,982.1
2018-08-12T07:19:45.685Z,982.2
2018-08-12T07:20:50.595Z,982.2
2018-08-12T07:21:52.083Z,982.2
2018-08-12T07:22:54.665Z,982.5
2018-08-12T07:23:57.915Z,982.4
2018-08-12T07:24:59.413Z,982.5
2018-08-12T07:26:00.645Z,982.7
2018-08-12T07:27:01.885Z,982.6
2018-08-12T07:28:03.701Z,982.6
2018-08-12T07:29:05.485Z,982.4
2018-08-12T07:30:06.754Z,982.4
2018-08-12T07:31:08.008Z,982.3
2018-08-12T07:32:09.210Z,982.3
2018-08-12T07:33:10.569Z,982.3
2018-08-12T07:34:13.338Z,982.2
2018-08-12T07:35:15.098Z,982.2
2018-08-12T07:36:16.585Z,982.3
2018-08-12T07:37:17.817Z,982.3
2018-08-12T07:38:19.125Z,982.3
2018-08-12T07:39:20.521Z,982.4
2018-08-12T07:40:21.770Z,982.7
2018-08-12T07:41:27.198Z,982.6
2018-08-12T07:42:28.484Z,982.3
2018-08-12T07:43:29.773Z,982.3
2018-08-12T07:44:33.727Z,982.3
2018-08-12T07:45:34.933Z,982.4
2018-08-12T07:46:36.154Z,982.4
2018-08-12T07:47:37.362Z,982.8
2018-08-12T07:48:38.606Z,982.7
2018-08-12T07:49:39.821Z,984.5
2018-08-12T07:50:41.007Z,984.1
2018-08-12T07:51:42.248Z,982.9
2018-08-12T07:52:43.766Z,982.8
2018-08-12T07:53:45.131Z,982.8
2018-08-12T07:54:46.563Z,984.2
2018-08-12T07:55:47.820Z,983.8
2018-08-12T07:56:49.030Z,983.3
2018-08-12T07:57:50.235Z,982.2
2018-08-12T07:58:51.514Z,982
2018-08-12T07:59:57.669Z,982.3
2018-08-12T08:00:59.121Z,982.7
2018-08-12T08:02:03.457Z,982.1
2018-08-12T08:03:07.123Z,981.9
2018-08-12T08:04:08.437Z,981.9
2018-08-12T08:05:12.149Z,981.9
2018-08-12T08:06:13.454Z,981.8
2018-08-12T08:07:19.298Z,982.5
2018-08-12T08:08:20.560Z,981.9
2018-08-12T08:09:22.302Z,981.8
2018-08-12T08:10:23.689Z,981.8
2018-08-12T08:11:25.685Z,982.4
2018-08-12T08:12:27.223Z,981.9
2018-08-12T08:13:28.705Z,982
2018-08-12T08:14:29.968Z,981.5
2018-08-12T08:15:31.215Z,981.7
2018-08-12T08:16:32.452Z,981.7
2018-08-12T08:17:36.270Z,982.1
2018-08-12T08:18:37.788Z,982
2018-08-12T08:19:39.182Z,981.6
2018-08-12T08:20:40.363Z,981.5
2018-08-12T08:21:41.672Z,981.5
2018-08-12T08:22:45.239Z,981.5
2018-08-12T08:23:46.629Z,982
2018-08-12T08:24:47.901Z,981.5
2018-08-12T08:27:07.819Z,981.6
2018-08-12T08:28:09.741Z,981.6
2018-08-12T08:29:10.999Z,981.6
2018-08-12T08:30:12.286Z,981.5
2018-08-12T08:31:13.862Z,981.5
2018-08-12T08:32:15.427Z,981.5
2018-08-12T08:33:17.538Z,981.6
2018-08-12T08:34:18.759Z,981.6
2018-08-12T08:35:19.996Z,981.6
2018-08-12T08:36:21.213Z,981.7
2018-08-12T08:37:26.840Z,981.6
2018-08-12T08:38:31.065Z,981.6
2018-08-12T08:39:35.007Z,981.6
2018-08-12T08:40:36.504Z,981.6
2018-08-12T08:41:37.931Z,981.6
2018-08-12T08:42:39.500Z,981.6
2018-08-12T08:43:40.728Z,981.5
2018-08-12T08:44:44.081Z,981.5
2018-08-12T08:45:45.393Z,981.4
2018-08-12T08:46:46.624Z,982
2018-08-12T08:47:47.885Z,981.7
2018-08-12T08:48:49.149Z,981.4
2018-08-12T08:49:51.417Z,981.6
2018-08-12T08:50:52.732Z,981.5
2018-08-12T08:51:57.080Z,981.6
2018-08-12T08:52:58.338Z,981.5
2018-08-12T08:53:59.512Z,981.3
2018-08-12T08:55:00.880Z,981.3
2018-08-12T08:56:03.887Z,981.4
2018-08-12T08:57:07.419Z,981.4
2018-08-12T08:58:08.989Z,981.3
2018-08-12T08:59:10.419Z,981.3
2018-08-12T09:00:16.670Z,981.4
2018-08-12T09:01:18.110Z,981.5
2018-08-12T09:02:24.455Z,981.4
2018-08-12T09:03:37.345Z,981.4
2018-08-12T09:04:39.868Z,981.4
2018-08-12T09:05:48.514Z,981.4
2018-08-12T09:06:53.267Z,981.3
2018-08-12T09:07:54.712Z,981.3
2018-08-12T09:08:58.482Z,981.3
2018-08-12T09:09:59.554Z,981.3
2018-08-12T09:11:03.130Z,981.3
2018-08-12T09:12:04.683Z,981.3
2018-08-12T09:13:09.702Z,981.3
2018-08-12T09:14:13.589Z,981.3
2018-08-12T09:15:15.028Z,981.3
2018-08-12T09:16:23.233Z,981.1
2018-08-12T09:17:24.662Z,981.3
2018-08-12T09:18:25.923Z,981.2
2018-08-12T09:19:30.153Z,981.2
2018-08-12T09:20:36.263Z,981.2
2018-08-12T09:21:41.845Z,981.3
2018-08-12T09:22:45.914Z,981.2
2018-08-12T09:23:50.594Z,981.2
2018-08-12T09:24:57.185Z,981.2
2018-08-12T09:25:58.483Z,981.1
2018-08-12T09:27:05.358Z,981
2018-08-12T09:28:16.830Z,981.2
2018-08-12T09:29:18.062Z,981.2
2018-08-12T09:30:20.101Z,981.2
2018-08-12T09:31:21.997Z,981.1
2018-08-12T09:32:26.085Z,981.2
2018-08-12T09:33:30.250Z,981
2018-08-12T09:34:31.552Z,981.2
2018-08-12T09:35:35.211Z,981.2
2018-08-12T09:36:36.483Z,981.2
2018-08-12T09:37:38.034Z,981.1
2018-08-12T09:38:43.661Z,981
2018-08-12T09:39:44.960Z,981.1
2018-08-12T09:40:46.189Z,981.1
2018-08-12T09:41:47.459Z,981.1
2018-08-12T09:42:56.728Z,981.1
2018-08-12T09:43:58.273Z,981.1
2018-08-12T09:44:59.587Z,981
2018-08-12T09:46:00.811Z,981
2018-08-12T09:47:02.288Z,981.1
2018-08-12T09:48:06.477Z,981
2018-08-12T09:49:08.290Z,981
2018-08-12T09:50:09.538Z,981.1
2018-08-12T09:51:12.968Z,981
2018-08-12T09:52:14.462Z,981
2018-08-12T09:53:18.146Z,980.9
2018-08-12T09:54:25.787Z,980.9
2018-08-12T09:55:27.556Z,980.9
2018-08-12T09:56:29.015Z,980.8
2018-08-12T09:57:30.897Z,980.8
2018-08-12T09:58:32.221Z,980.7
2018-08-12T09:59:36.459Z,980.8
2018-08-12T10:00:37.908Z,980.7
2018-08-12T10:01:41.580Z,980.9
2018-08-12T10:02:45.133Z,980.9
2018-08-12T10:03:46.360Z,980.8
2018-08-12T10:04:49.748Z,980.7
2018-08-12T10:05:51.030Z,980.7
2018-08-12T10:06:52.540Z,980.8
2018-08-12T10:07:56.254Z,980.7
2018-08-12T10:08:58.227Z,980.7
2018-08-12T10:10:01.836Z,980.6
2018-08-12T10:11:03.119Z,980.7
2018-08-12T10:12:05.091Z,980.6
2018-08-12T10:13:06.400Z,980.6
2018-08-12T10:14:08.137Z,980.6
2018-08-12T10:15:09.796Z,980.6
2018-08-12T10:16:11.108Z,980.6
2018-08-12T10:17:15.471Z,980.6
2018-08-12T10:18:21.595Z,980.6
2018-08-12T10:19:25.126Z,980.5
2018-08-12T10:20:26.404Z,980.5
2018-08-12T10:21:29.863Z,980.5
2018-08-12T10:22:33.143Z,980.5
2018-08-12T10:23:36.058Z,980.4
2018-08-12T10:24:37.326Z,980.5
2018-08-12T10:25:40.560Z,980.2
2018-08-12T10:26:47.241Z,980.4
2018-08-12T10:27:48.737Z,980.3
2018-08-12T10:28:50.360Z,980.4
2018-08-12T10:29:51.825Z,980.3
2018-08-12T10:30:53.380Z,980.3
2018-08-12T10:31:54.827Z,980.3
2018-08-12T10:32:58.651Z,980.4
2018-08-12T10:34:00.715Z,980.4
2018-08-12T10:35:02.647Z,980.3
2018-08-12T10:36:04.051Z,980.3
2018-08-12T10:37:05.354Z,980.1
2018-08-12T10:38:06.823Z,980.3
2018-08-12T10:39:08.093Z,980.3
2018-08-12T10:40:09.345Z,980.3
2018-08-12T10:41:12.220Z,980.2
2018-08-12T10:42:16.411Z,980.2
2018-08-12T10:43:17.698Z,980.2
2018-08-12T10:44:19.385Z,980.2
2018-08-12T10:45:22.270Z,980.2
2018-08-12T10:46:24.896Z,980.1
2018-08-12T10:47:26.089Z,980.1
2018-08-12T10:48:27.637Z,980
2018-08-12T10:49:36.153Z,980
2018-08-12T10:50:37.479Z,980.1
2018-08-12T10:51:39.391Z,980.1
2018-08-12T10:52:43.147Z,980.1
2018-08-12T10:53:49.699Z,980.1
2018-08-12T10:54:51.323Z,980.1
2018-08-12T10:55:52.666Z,980.1
2018-08-12T10:56:58.830Z,980.1
2018-08-12T10:58:03.044Z,980.1
2018-08-12T10:59:05.895Z,980.1
2018-08-12T11:00:10.825Z,980.1
2018-08-12T11:01:12.317Z,980
2018-08-12T11:02:13.725Z,980
2018-08-12T11:03:16.459Z,980
2018-08-12T11:04:17.763Z,980
2018-08-12T11:05:19.189Z,980
2018-08-12T11:06:23.975Z,979.9
2018-08-12T11:07:25.762Z,979.9
2018-08-12T11:08:27.158Z,979.9
2018-08-12T11:09:28.517Z,979.9
2018-08-12T11:10:29.780Z,979.8
2018-08-12T11:11:31.265Z,980
2018-08-12T11:12:32.759Z,979.9
2018-08-12T11:13:34.764Z,979.6
2018-08-12T11:14:37.647Z,980
2018-08-12T11:15:41.443Z,980
2018-08-12T11:16:45.284Z,979.9
2018-08-12T11:17:48.097Z,979.9
2018-08-12T11:18:50.591Z,979.6
2018-08-12T11:19:57.098Z,979.9
2018-08-12T11:20:58.403Z,979.8
2018-08-12T11:22:01.813Z,979.7
2018-08-12T11:23:04.488Z,979.8
2018-08-12T11:24:08.201Z,979.8
2018-08-12T11:25:09.462Z,979.8
2018-08-12T11:26:10.774Z,979.8
2018-08-12T11:27:12.282Z,979.8
2018-08-12T11:28:13.891Z,979.7
2018-08-12T11:29:15.300Z,979.8
2018-08-12T11:30:16.581Z,979.8
2018-08-12T11:31:21.038Z,979.8
2018-08-12T11:32:22.312Z,979.8
2018-08-12T11:33:23.746Z,979.7
2018-08-12T11:34:25.257Z,979.7
2018-08-12T11:35:26.865Z,979.5
2018-08-12T11:36:31.387Z,979.7
2018-08-12T11:37:39.704Z,979.6
2018-08-12T11:38:43.572Z,979.7
2018-08-12T11:39:46.832Z,979.6
2018-08-12T11:40:50.815Z,979.6
2018-08-12T11:41:52.214Z,979.6
2018-08-12T11:42:54.802Z,979.7
2018-08-12T11:43:56.101Z,979.7
2018-08-12T11:45:01.898Z,979.7
2018-08-12T11:46:03.199Z,979.6
2018-08-12T11:47:08.570Z,979.7
2018-08-12T11:48:17.252Z,979.5
2018-08-12T11:49:21.263Z,979.6
2018-08-12T11:50:22.467Z,979.7
2018-08-12T11:51:24.008Z,979.6
2018-08-12T11:52:28.361Z,979.5
2018-08-12T11:53:31.553Z,979.4
2018-08-12T11:54:38.432Z,979.6
2018-08-12T11:55:44.458Z,979.5
2018-08-12T11:56:45.699Z,979.4
2018-08-12T11:57:47.372Z,979.5
2018-08-12T11:58:51.419Z,979.4
2018-08-12T11:59:52.680Z,979.5
2018-08-12T12:00:56.126Z,979.4
2018-08-12T12:01:57.323Z,979.4
2018-08-12T12:02:58.762Z,979.4
2018-08-12T12:03:59.987Z,979.3
2018-08-12T12:05:01.331Z,979.4
2018-08-12T12:06:04.136Z,979.3
2018-08-12T12:07:08.851Z,979.4
2018-08-12T12:08:11.588Z,979.3
2018-08-12T12:09:20.688Z,979.3
2018-08-12T12:10:22.828Z,979.2
2018-08-12T12:11:29.655Z,979.3
2018-08-12T12:12:31.034Z,979.3
2018-08-12T12:13:40.600Z,979.3
2018-08-12T12:14:46.661Z,979.3
2018-08-12T12:15:48.191Z,979.3
2018-08-12T12:16:49.855Z,979.3
2018-08-12T12:17:57.161Z,979.3
2018-08-12T12:18:58.476Z,979.3
2018-08-12T12:19:59.714Z,979.3
2018-08-12T12:21:01.252Z,979.3
2018-08-12T12:22:06.404Z,979.3
2018-08-12T12:23:10.042Z,979.2
2018-08-12T12:24:13.414Z,979.3
2018-08-12T12:25:18.155Z,979.2
2018-08-12T12:26:20.351Z,979.1
2018-08-12T12:27:25.328Z,979.1
2018-08-12T12:28:26.712Z,979.1
2018-08-12T12:29:28.183Z,979.1
2018-08-12T12:30:29.441Z,979.1
2018-08-12T12:31:31.097Z,979.1
2018-08-12T12:32:37.395Z,979.1
2018-08-12T12:33:39.923Z,979
2018-08-12T12:34:41.250Z,979
2018-08-12T12:35:44.050Z,979
2018-08-12T12:36:47.974Z,979.1
2018-08-12T12:37:55.317Z,979.1
2018-08-12T12:38:59.526Z,979
2018-08-12T12:40:00.770Z,978.9
2018-08-12T12:41:04.387Z,979
2018-08-12T12:42:05.673Z,979
2018-08-12T12:43:37.209Z,978.9
2018-08-12T12:44:38.471Z,978.9
2018-08-12T12:45:39.717Z,978.9
2018-08-12T12:46:50.039Z,978.9
2018-08-12T12:47:51.320Z,978.9
2018-08-12T12:48:52.743Z,978.9
2018-08-12T12:49:54.176Z,978.9
2018-08-12T12:50:55.468Z,978.8
2018-08-12T12:52:01.994Z,978.8
2018-08-12T12:53:03.360Z,978.8
2018-08-12T12:54:06.398Z,978.7
2018-08-12T12:55:07.775Z,978.8
2018-08-12T12:56:10.023Z,978.8
2018-08-12T12:57:11.616Z,978.8
2018-08-12T12:58:13.512Z,978.8
2018-08-12T12:59:16.211Z,978.6
2018-08-12T13:00:17.460Z,978.8
2018-08-12T13:01:18.651Z,978.8
2018-08-12T13:02:25.470Z,978.8
2018-08-12T13:03:27.035Z,978.8
2018-08-12T13:04:28.382Z,978.7
2018-08-12T13:05:29.921Z,978.7
2018-08-12T13:06:35.826Z,978.7
2018-08-12T13:07:37.089Z,978.4
2018-08-12T13:08:40.881Z,978.7
2018-08-12T13:09:43.308Z,978.7
2018-08-12T13:10:46.746Z,978.6
2018-08-12T13:11:48.002Z,978.7
2018-08-12T13:12:49.528Z,978.6
2018-08-12T13:13:50.822Z,978.6
2018-08-12T13:14:54.614Z,978.5
2018-08-12T13:15:55.813Z,978.5
2018-08-12T13:17:02.463Z,978.5
2018-08-12T13:18:12.074Z,978.5
2018-08-12T13:19:14.633Z,978.5
2018-08-12T13:20:20.078Z,978.5
2018-08-12T13:21:27.184Z,978.5
2018-08-12T13:22:29.500Z,978.5
2018-08-12T13:23:39.463Z,978.4
2018-08-12T13:24:42.124Z,978.4
2018-08-12T13:25:46.263Z,978.5
2018-08-12T13:26:47.649Z,978.5
2018-08-12T13:28:01.707Z,978.2
2018-08-12T13:29:07.527Z,978.3
2018-08-12T13:30:09.074Z,978.4